Time;durP1;ratioP1;P1;durP2;ratioP2;P2;SDS_P1;SDS_P2;PMS_P1;PMS_P2;Temp;Humidity;BMP_temperature;BMP_pressure;BME280_temperature;BME280_humidity;BME280_pressure;Samples;Min_cycle;Max_cycle;Signal;HPM_P1;HPM_P2
2022/08/21 00:00:55;;;;;;;;;55.00;45.25;;;;;26.68;67.04;98733.69;5091804;28;8840;-77
2022/08/21 00:03:23;;;;;;;;;54.50;45.50;;;;;26.92;65.97;98736.19;5091516;28;8874;-78
2022/08/21 00:05:53;;;;;;;;;60.00;47.75;;;;;27.15;65.22;98737.00;5089845;28;8840;-79
2022/08/21 00:08:22;;;;;;;;;58.75;46.75;;;;;27.24;64.71;98735.41;5089463;28;9009;-77
2022/08/21 00:10:51;;;;;;;;;58.00;48.75;;;;;27.41;63.86;98739.34;5073041;28;8953;-77
2022/08/21 00:13:20;;;;;;;;;57.75;46.75;;;;;27.57;63.52;98733.59;5091319;28;9592;-79
2022/08/21 00:15:50;;;;;;;;;63.00;49.75;;;;;27.63;62.77;98727.69;5090383;28;8828;-77
2022/08/21 00:18:20;;;;;;;;;62.75;51.00;;;;;27.31;64.26;98733.06;5090264;28;8859;-77
2022/08/21 00:20:49;;;;;;;;;58.75;47.75;;;;;27.36;63.82;98731.72;5073829;28;8865;-76
2022/08/21 00:23:18;;;;;;;;;52.50;43.50;;;;;27.48;63.54;98724.47;5092226;28;8848;-78
2022/08/21 00:25:47;;;;;;;;;60.50;49.00;;;;;27.51;63.29;98732.28;5073787;28;8882;-77
2022/08/21 00:28:16;;;;;;;;;63.75;49.50;;;;;27.77;62.43;98730.06;5091908;28;8844;-80
2022/08/21 00:30:47;;;;;;;;;58.25;47.75;;;;;27.99;62.12;98739.81;5083650;28;8925;-77
2022/08/21 00:33:15;;;;;;;;;62.00;50.00;;;;;28.12;61.68;98739.63;5070718;28;8850;-76
2022/08/21 00:35:45;;;;;;;;;59.00;48.25;;;;;28.37;61.02;98742.84;5075790;28;8855;-78
2022/08/21 00:38:14;;;;;;;;;53.50;44.75;;;;;27.97;61.28;98749.81;5091688;28;8867;-78
2022/08/21 00:40:46;;;;;;;;;52.00;44.25;;;;;28.27;60.48;98739.28;5091941;28;9633;-78
2022/08/21 00:43:19;;;;;;;;;41.25;37.25;;;;;27.55;61.54;98741.75;5090625;28;8928;-75
2022/08/21 00:45:49;;;;;;;;;24.75;24.00;;;;;27.75;60.47;98741.88;5055280;28;8900;-75
2022/08/21 00:48:18;;;;;;;;;24.75;23.00;;;;;27.11;62.04;98740.03;5090841;28;9577;-77
2022/08/21 00:50:53;;;;;;;;;27.80;25.60;;;;;26.94;63.03;98747.63;5089875;28;8872;-76
2022/08/21 00:53:24;;;;;;;;;20.20;19.80;;;;;26.93;62.87;98740.56;5073532;28;8958;-77
2022/08/21 00:55:54;;;;;;;;;23.20;21.80;;;;;26.96;62.43;98734.97;5072577;28;9021;-78
2022/08/21 00:58:24;;;;;;;;;15.40;14.20;;;;;26.35;64.41;98745.19;5088575;28;8856;-77
2022/08/21 01:00:53;;;;;;;;;21.40;19.40;;;;;26.49;64.07;98742.28;5090986;28;8839;-78
2022/08/21 01:03:25;;;;;;;;;18.60;17.80;;;;;26.03;65.38;98740.53;5090417;28;8843;-76
2022/08/21 01:05:55;;;;;;;;;20.40;19.20;;;;;26.04;65.38;98731.56;5123733;27;8847;-76
2022/08/21 01:08:25;;;;;;;;;17.20;16.80;;;;;25.66;66.49;98738.84;5091298;28;8872;-79
2022/08/21 01:10:54;;;;;;;;;11.00;10.20;;;;;25.53;66.40;98739.88;5091544;28;8959;-77
2022/08/21 01:13:28;;;;;;;;;13.80;13.60;;;;;26.15;64.35;98744.09;5090980;28;9005;-77
2022/08/21 01:16:00;;;;;;;;;13.60;10.20;;;;;26.06;63.29;98730.47;5090819;28;8851;-78
2022/08/21 01:18:30;;;;;;;;;5.60;4.00;;;;;25.90;62.59;98727.25;5089555;28;8835;-78
2022/08/21 01:21:09;;;;;;;;;4.60;4.60;;;;;25.93;60.40;98713.69;5055595;28;8863;-76
2022/08/21 01:23:43;;;;;;;;;2.80;2.80;;;;;25.05;63.39;98709.56;5091065;28;8847;-77
2022/08/21 01:26:15;;;;;;;;;2.60;2.60;;;;;25.34;62.33;98708.38;5089178;28;8835;-77
2022/08/21 01:28:49;;;;;;;;;2.80;2.80;;;;;25.51;62.20;98713.28;5089332;28;8844;-77
2022/08/21 01:31:22;;;;;;;;;1.20;1.20;;;;;25.80;61.23;98713.75;5090164;28;9652;-76
2022/08/21 01:33:53;;;;;;;;;2.80;2.80;;;;;26.03;60.03;98704.00;5089936;28;8901;-78
2022/08/21 01:36:25;;;;;;;;;1.60;1.20;;;;;26.00;60.64;98706.06;5087812;28;8874;-75
2022/08/21 01:38:53;;;;;;;;;3.00;3.00;;;;;25.81;61.27;98695.91;5088654;28;8932;-79
2022/08/21 01:41:22;;;;;;;;;2.20;2.20;;;;;26.08;61.24;98692.09;5071841;28;8920;-78
2022/08/21 01:43:50;;;;;;;;;2.40;2.40;;;;;26.00;61.59;98687.34;5054482;28;8835;-77
2022/08/21 01:46:19;;;;;;;;;1.60;1.60;;;;;26.24;60.83;98696.09;5054336;28;8909;-77
2022/08/21 01:48:48;;;;;;;;;2.80;2.80;;;;;26.43;60.90;98687.47;5054138;28;8951;-77
2022/08/21 01:51:16;;;;;;;;;2.40;2.40;;;;;26.16;60.65;98692.31;5089736;28;8848;-79
2022/08/21 01:53:46;;;;;;;;;3.00;3.00;;;;;26.26;60.44;98686.16;5088924;28;8860;-76
2022/08/21 01:56:17;;;;;;;;;2.60;2.60;;;;;25.07;63.97;98698.78;5054022;28;8867;-76
2022/08/21 01:58:47;;;;;;;;;3.40;3.40;;;;;24.63;66.17;98703.72;5089636;28;8878;-79
2022/08/21 02:01:16;;;;;;;;;2.00;1.60;;;;;23.97;68.81;98705.69;5071164;28;8991;-79
2022/08/21 02:03:45;;;;;;;;;2.80;2.80;;;;;23.18;71.86;98714.56;5088150;28;8836;-77
2022/08/21 02:06:17;;;;;;;;;4.00;3.40;;;;;23.19;72.82;98698.47;5121779;27;8855;-77
2022/08/21 02:08:50;;;;;;;;;2.00;2.00;;;;;23.49;70.85;98700.91;5073292;28;8942;-76
2022/08/21 02:11:19;;;;;;;;;3.40;3.40;;;;;23.62;69.49;98694.75;5069651;28;8854;-77
2022/08/21 02:13:47;;;;;;;;;4.20;4.20;;;;;23.49;70.23;98692.91;5085738;28;8876;-77
2022/08/21 02:16:16;;;;;;;;;4.20;4.20;;;;;23.86;69.34;98687.78;5069990;28;8839;-76
2022/08/21 02:18:47;;;;;;;;;4.60;3.20;;;;;24.32;67.55;98683.69;5070335;28;8905;-76
2022/08/21 02:21:16;;;;;;;;;4.20;4.20;;;;;24.11;68.32;98680.75;5086653;28;8974;-76
2022/08/21 02:23:45;;;;;;;;;4.60;4.60;;;;;24.25;67.85;98680.63;5091025;28;8882;-78
2022/08/21 02:26:15;;;;;;;;;4.40;4.40;;;;;24.40;67.39;98685.81;5103958;28;8855;-77
2022/08/21 02:28:44;;;;;;;;;6.80;6.80;;;;;24.63;66.99;98681.53;5086184;28;8836;-77
2022/08/21 02:31:12;;;;;;;;;6.20;4.60;;;;;24.38;67.42;98682.41;5104470;28;8954;-78
2022/08/21 02:33:41;;;;;;;;;4.00;4.00;;;;;24.39;67.45;98687.63;5089216;28;8848;-77
2022/08/21 02:36:12;;;;;;;;;4.80;4.80;;;;;24.37;67.82;98684.22;5084157;28;8846;-78
2022/08/21 02:38:42;;;;;;;;;3.60;3.60;;;;;24.73;66.51;98679.06;5049943;28;8892;-77
2022/08/21 02:41:16;;;;;;;;;5.20;3.80;;;;;24.70;65.92;98683.63;5076460;28;8808;-77
2022/08/21 02:43:45;;;;;;;;;5.80;5.80;;;;;24.28;67.98;98684.88;5088814;28;8852;-77
2022/08/21 02:46:17;;;;;;;;;5.60;4.80;;;;;23.98;69.07;98679.91;5087025;28;8871;-76
2022/08/21 02:48:46;;;;;;;;;6.20;6.20;;;;;24.15;68.45;98681.38;5083479;28;8846;-76
2022/08/21 02:51:18;;;;;;;;;9.00;7.80;;;;;24.52;67.05;98680.50;5067739;28;9693;-78
2022/08/21 02:53:48;;;;;;;;;5.20;5.20;;;;;24.64;66.47;98686.75;5066667;28;8846;-78
2022/08/21 02:56:20;;;;;;;;;6.00;6.00;;;;;24.59;66.81;98680.91;5032415;28;8885;-78
2022/08/21 02:58:52;;;;;;;;;5.40;5.40;;;;;24.92;65.45;98679.41;5065424;28;8945;-77
2022/08/21 03:01:21;;;;;;;;;6.60;6.00;;;;;25.19;64.67;98676.50;5077489;28;8844;-76
2022/08/21 03:03:50;;;;;;;;;6.60;6.40;;;;;24.94;65.13;98677.47;5086853;28;8835;-76
2022/08/21 03:06:22;;;;;;;;;5.00;5.00;;;;;25.29;64.17;98664.22;5087684;28;8840;-77
2022/08/21 03:08:51;;;;;;;;;3.00;3.00;;;;;25.65;63.30;98667.72;5052895;28;8860;-77
2022/08/21 03:11:21;;;;;;;;;3.40;3.40;;;;;25.56;63.32;98665.75;5088589;28;9021;-78
2022/08/21 03:13:49;;;;;;;;;4.00;4.00;;;;;25.81;62.67;98656.69;5083252;28;8843;-76
2022/08/21 03:16:20;;;;;;;;;5.20;4.00;;;;;26.04;62.26;98662.09;5049314;28;8838;-77
2022/08/21 03:18:49;;;;;;;;;5.00;5.00;;;;;26.12;61.18;98661.47;5068013;28;8870;-78
2022/08/21 03:21:18;;;;;;;;;5.80;5.80;;;;;25.67;62.69;98660.44;5076304;28;8859;-79
2022/08/21 03:23:47;;;;;;;;;5.20;5.20;;;;;25.89;61.64;98658.75;5086283;28;8836;-76
2022/08/21 03:26:15;;;;;;;;;6.20;5.60;;;;;25.93;61.94;98662.91;5086367;28;8885;-80
2022/08/21 03:28:48;;;;;;;;;5.20;5.20;;;;;25.63;63.00;98664.31;5086209;28;8894;-78
2022/08/21 03:31:17;;;;;;;;;8.00;7.00;;;;;25.08;64.78;98671.13;5087476;28;9600;-78
2022/08/21 03:33:46;;;;;;;;;7.00;6.00;;;;;24.99;65.41;98663.78;5086689;28;8851;-76
2022/08/21 03:36:14;;;;;;;;;8.40;8.00;;;;;25.43;63.98;98667.66;5088277;28;8894;-77
2022/08/21 03:38:43;;;;;;;;;9.40;9.00;;;;;25.24;64.59;98666.38;5069576;28;8860;-77
2022/08/21 03:41:12;;;;;;;;;11.40;9.20;;;;;25.07;65.22;98661.44;5122243;28;8998;-77
2022/08/21 03:43:40;;;;;;;;;11.00;11.00;;;;;24.35;68.49;98674.63;5090333;28;9595;-76
2022/08/21 03:46:11;;;;;;;;;7.20;7.20;;;;;25.15;65.71;98660.84;5092132;28;8844;-77
2022/08/21 03:48:39;;;;;;;;;10.80;10.80;;;;;25.20;65.07;98664.88;5093926;28;8874;-77
2022/08/21 03:51:08;;;;;;;;;11.00;11.00;;;;;25.36;64.74;98666.41;5100548;28;8858;-76
2022/08/21 03:53:37;;;;;;;;;14.00;13.60;;;;;25.33;64.76;98662.16;5048962;28;8957;-80
2022/08/21 03:56:06;;;;;;;;;12.20;12.20;;;;;25.52;64.27;98666.09;5067475;28;8846;-76
2022/08/21 03:58:35;;;;;;;;;12.80;12.80;;;;;25.84;63.32;98664.47;5073349;28;8859;-78
2022/08/21 04:01:06;;;;;;;;;14.00;14.00;;;;;25.76;63.03;98666.88;5086388;28;8828;-76
2022/08/21 04:03:38;;;;;;;;;14.00;13.00;;;;;25.89;63.16;98664.09;5086599;28;8844;-78
2022/08/21 04:06:08;;;;;;;;;13.60;13.60;;;;;26.05;62.68;98663.81;5093887;28;8926;-76
2022/08/21 04:08:36;;;;;;;;;12.80;12.80;;;;;26.23;61.88;98662.31;5088072;28;8940;-78
2022/08/21 04:11:07;;;;;;;;;13.60;13.00;;;;;26.10;62.51;98666.09;5070654;28;8876;-76
2022/08/21 04:13:35;;;;;;;;;14.40;13.20;;;;;26.17;61.90;98672.66;5085566;28;8846;-77
2022/08/21 04:16:12;;;;;;;;;17.40;16.60;;;;;26.23;62.21;98667.66;5068971;28;8892;-76
2022/08/21 04:18:42;;;;;;;;;19.20;17.40;;;;;26.23;62.17;98667.66;5068429;28;8880;-78
2022/08/21 04:21:12;;;;;;;;;16.00;16.00;;;;;26.24;62.31;98673.88;5066914;28;8865;-77
2022/08/21 04:23:41;;;;;;;;;23.20;23.00;;;;;26.02;62.41;98672.03;5068219;28;8838;-78
2022/08/21 04:26:10;;;;;;;;;20.80;17.40;;;;;25.83;63.27;98676.09;5085265;28;8857;-76
2022/08/21 04:28:39;;;;;;;;;25.60;25.40;;;;;25.96;62.99;98676.03;5084782;28;8935;-77
2022/08/21 04:31:08;;;;;;;;;17.00;16.20;;;;;26.03;62.81;98671.94;5068173;28;8884;-77
2022/08/21 04:33:37;;;;;;;;;17.00;17.00;;;;;26.04;62.88;98673.63;5088591;28;9612;-77
2022/08/21 04:36:07;;;;;;;;;15.00;15.00;;;;;26.11;62.06;98675.81;5071372;28;8842;-78
2022/08/21 04:38:36;;;;;;;;;17.60;16.40;;;;;26.05;62.48;98682.50;5070904;28;8849;-76
2022/08/21 04:41:11;;;;;;;;;17.20;17.20;;;;;25.98;62.21;98674.09;5070846;28;8886;-78
2022/08/21 04:43:40;;;;;;;;;17.20;16.20;;;;;26.16;61.92;98684.31;5037526;28;8857;-76
2022/08/21 04:46:09;;;;;;;;;14.20;14.20;;;;;26.29;61.69;98673.50;5087418;28;8956;-76
2022/08/21 04:48:41;;;;;;;;;16.20;16.20;;;;;26.08;62.15;98686.75;5087868;28;8888;-78
2022/08/21 04:51:16;;;;;;;;;16.20;15.00;;;;;26.16;61.89;98693.19;5089460;28;8847;-77
2022/08/21 04:53:48;;;;;;;;;17.60;16.40;;;;;25.90;62.79;98694.31;5090619;28;8929;-78
2022/08/21 04:56:22;;;;;;;;;16.80;16.80;;;;;25.63;64.31;98696.38;5089398;28;8863;-78
2022/08/21 04:58:53;;;;;;;;;19.20;18.80;;;;;25.76;63.52;98692.72;5090588;28;8870;-77
2022/08/21 05:01:24;;;;;;;;;17.20;16.60;;;;;24.91;66.93;98704.38;5089273;28;9024;-78
2022/08/21 05:03:59;;;;;;;;;23.60;21.40;;;;;24.89;67.45;98693.81;5090378;28;8843;-78
2022/08/21 05:06:32;;;;;;;;;21.00;19.80;;;;;24.80;68.00;98701.63;5088568;28;8893;-77
2022/08/21 05:09:02;;;;;;;;;19.00;17.20;;;;;24.79;67.55;98698.13;5090594;28;8856;-79
2022/08/21 05:11:31;;;;;;;;;20.60;19.60;;;;;25.21;66.23;98701.25;5089015;28;8859;-81
2022/08/21 05:14:00;;;;;;;;;20.20;18.40;;;;;25.10;66.98;98699.41;5088175;28;8898;-78
2022/08/21 05:16:28;;;;;;;;;19.00;18.60;;;;;25.05;67.18;98696.22;5090168;28;9645;-78
2022/08/21 05:19:06;;;;;;;;;20.60;20.20;;;;;24.58;69.45;98697.03;5090488;28;8832;-79
2022/08/21 05:21:39;;;;;;;;;21.60;21.00;;;;;24.83;68.54;98696.09;5088365;28;8859;-78
2022/08/21 05:24:09;;;;;;;;;21.40;20.20;;;;;24.38;70.62;98703.72;5088779;28;8867;-77
2022/08/21 05:26:38;;;;;;;;;21.00;18.40;;;;;24.51;69.99;98708.09;5072028;28;8855;-79
2022/08/21 05:29:15;;;;;;;;;23.00;21.60;;;;;24.28;71.03;98701.72;5088304;28;8898;-79
2022/08/21 05:31:47;;;;;;;;;22.60;21.20;;;;;24.44;70.11;98706.84;5089940;28;8944;-77
2022/08/21 05:34:18;;;;;;;;;19.00;19.00;;;;;24.71;69.08;98705.84;5105635;28;8859;-77
2022/08/21 05:36:49;;;;;;;;;22.00;21.00;;;;;24.48;69.95;98708.31;5088692;28;8844;-77
2022/08/21 05:39:17;;;;;;;;;19.20;18.40;;;;;24.13;71.57;98706.31;5089221;28;8887;-77
2022/08/21 05:41:47;;;;;;;;;21.00;21.00;;;;;24.01;72.17;98706.34;5089290;28;8954;-77
2022/08/21 05:44:16;;;;;;;;;22.20;21.00;;;;;23.93;72.54;98706.84;5089650;28;8859;-78
2022/08/21 05:46:44;;;;;;;;;21.40;21.00;;;;;24.13;71.99;98694.81;5089577;28;8895;-77
2022/08/21 05:49:13;;;;;;;;;19.60;19.00;;;;;24.06;72.20;98698.84;5090295;28;8855;-79
2022/08/21 05:51:43;;;;;;;;;21.20;21.20;;;;;24.10;72.23;98701.22;5090595;28;8930;-78
2022/08/21 05:54:13;;;;;;;;;39.75;35.75;;;;;24.56;70.25;98693.63;5072443;28;8883;-77
2022/08/21 05:56:44;;;;;;;;;25.60;24.20;;;;;24.90;68.82;98695.53;5090293;28;8843;-79
2022/08/21 05:59:13;;;;;;;;;23.60;22.00;;;;;25.19;67.44;98699.66;5090588;28;8851;-77
2022/08/21 06:01:41;;;;;;;;;21.00;20.20;;;;;25.47;66.21;98693.16;5089565;28;8867;-76
2022/08/21 06:04:10;;;;;;;;;16.00;15.20;;;;;25.15;67.03;98687.53;5071283;28;8945;-79
2022/08/21 06:06:39;;;;;;;;;19.20;17.20;;;;;25.52;65.76;98691.00;5017880;28;8827;-77
2022/08/21 06:09:07;;;;;;;;;26.00;24.60;;;;;25.17;66.89;98696.28;5077879;28;8868;-77
2022/08/21 06:11:37;;;;;;;;;24.20;22.00;;;;;24.75;69.13;98693.13;5089124;28;8874;-77
2022/08/21 06:14:07;;;;;;;;;25.40;24.00;;;;;24.65;70.06;98695.59;5088456;28;8974;-76
2022/08/21 06:16:35;;;;;;;;;23.80;23.40;;;;;24.95;68.16;98702.34;5090021;28;8874;-78
2022/08/21 06:19:04;;;;;;;;;26.20;23.60;;;;;25.37;67.42;98709.00;5090978;28;8968;-77
2022/08/21 06:21:32;;;;;;;;;21.20;18.80;;;;;25.51;66.13;98699.94;5109960;28;9594;-80
2022/08/21 06:24:01;;;;;;;;;25.20;22.80;;;;;25.40;66.59;98694.56;5108857;28;8881;-77
2022/08/21 06:26:30;;;;;;;;;23.00;22.80;;;;;25.44;66.53;98706.72;5107496;28;8841;-79
2022/08/21 06:29:00;;;;;;;;;24.40;24.20;;;;;25.39;66.95;98704.41;5070563;28;8878;-78
2022/08/21 06:31:29;;;;;;;;;21.60;20.20;;;;;25.35;67.00;98702.94;5088459;28;8863;-77
2022/08/21 06:33:58;;;;;;;;;21.80;21.40;;;;;26.02;64.99;98702.28;5087827;28;8847;-76
2022/08/21 06:36:27;;;;;;;;;27.00;25.40;;;;;26.08;63.51;98700.09;5088272;28;9693;-76
2022/08/21 06:38:55;;;;;;;;;27.00;24.40;;;;;26.06;63.77;98703.72;5088922;28;8881;-76
2022/08/21 06:41:25;;;;;;;;;24.80;23.60;;;;;26.20;63.11;98704.47;5088794;28;9029;-76
2022/08/21 06:43:56;;;;;;;;;24.00;21.40;;;;;26.40;62.38;98706.44;5088787;28;8852;-78
2022/08/21 06:46:29;;;;;;;;;30.80;27.80;;;;;25.97;63.74;98706.28;5087263;28;8856;-79
2022/08/21 06:48:58;;;;;;;;;28.60;27.20;;;;;25.41;66.84;98698.97;5088048;28;8890;-77
2022/08/21 06:51:28;;;;;;;;;27.80;27.80;;;;;25.22;68.00;98696.78;5088060;28;9624;-77
2022/08/21 06:53:57;;;;;;;;;29.60;27.00;;;;;25.64;65.71;98699.88;5036622;28;8848;-78
2022/08/21 06:56:27;;;;;;;;;30.75;29.50;;;;;25.46;66.58;98702.97;5086592;28;8886;-78
2022/08/21 06:58:55;;;;;;;;;26.20;24.60;;;;;25.99;64.31;98701.66;5088659;28;8864;-77
2022/08/21 07:01:27;;;;;;;;;24.80;24.80;;;;;25.25;67.00;98699.25;5087856;28;8856;-78
2022/08/21 07:03:56;;;;;;;;;23.40;23.40;;;;;25.74;65.63;98705.34;5036821;28;8844;-79
2022/08/21 07:06:25;;;;;;;;;24.20;22.00;;;;;26.29;64.01;98701.06;5096661;28;8871;-78
2022/08/21 07:08:54;;;;;;;;;28.00;27.00;;;;;25.82;64.76;98706.47;5095077;28;8886;-78
2022/08/21 07:11:27;;;;;;;;;25.80;25.20;;;;;26.12;63.41;98698.88;5087146;28;8872;-78
2022/08/21 07:13:56;;;;;;;;;25.80;24.80;;;;;26.35;62.67;98702.41;5086717;28;8866;-78
2022/08/21 07:16:26;;;;;;;;;23.80;22.60;;;;;26.14;63.71;98700.47;5086793;28;8855;-76
2022/08/21 07:18:55;;;;;;;;;23.20;23.20;;;;;26.23;63.03;98699.75;5103445;28;8873;-77
2022/08/21 07:21:24;;;;;;;;;101.75;90.00;;;;;26.56;61.73;98700.72;5068885;28;8891;-76
2022/08/21 07:23:54;;;;;;;;;55.50;43.75;;;;;26.71;60.99;98704.03;5086171;28;10837;-79
2022/08/21 07:26:24;;;;;;;;;22.80;22.60;;;;;26.63;60.57;98696.63;5087421;28;8986;-79
2022/08/21 07:28:54;;;;;;;;;21.00;19.80;;;;;26.56;60.70;98702.53;5088259;28;8940;-78
2022/08/21 07:31:25;;;;;;;;;21.80;18.80;;;;;26.35;61.61;98694.41;5086701;28;8871;-79
2022/08/21 07:33:56;;;;;;;;;20.20;19.20;;;;;25.99;63.39;98694.53;5088021;28;8828;-77
2022/08/21 07:36:25;;;;;;;;;20.00;18.60;;;;;25.67;64.36;98702.28;5086723;28;8874;-78
2022/08/21 07:38:53;;;;;;;;;21.80;20.40;;;;;25.75;64.07;98694.56;5052398;28;8860;-79
2022/08/21 07:41:25;;;;;;;;;17.20;17.20;;;;;25.72;64.57;98693.94;5088289;28;9291;-80
2022/08/21 07:43:53;;;;;;;;;16.40;15.60;;;;;25.64;65.45;98697.19;5069101;28;8858;-80
2022/08/21 07:46:22;;;;;;;;;18.20;17.60;;;;;25.15;66.72;98695.53;5052423;28;8872;-77
2022/08/21 07:48:51;;;;;;;;;15.60;14.60;;;;;24.84;68.09;98701.31;5086222;28;8946;-78
2022/08/21 07:51:28;;;;;;;;;9.40;9.40;;;;;24.54;69.24;98700.84;5053101;28;8880;-76
2022/08/21 07:53:59;;;;;;;;;17.00;15.60;;;;;24.27;70.69;98702.69;5035814;28;8845;-79
2022/08/21 07:56:29;;;;;;;;;22.00;19.60;;;;;24.18;71.42;98695.34;5068389;28;8861;-78
2022/08/21 07:58:57;;;;;;;;;16.40;15.20;;;;;24.19;71.67;98697.03;5084378;28;8881;-77
2022/08/21 08:01:26;;;;;;;;;15.40;14.40;;;;;24.16;71.93;98697.28;5067664;28;8842;-80
2022/08/21 08:03:56;;;;;;;;;15.60;15.20;;;;;24.33;71.95;98696.91;5084794;28;8977;-77
2022/08/21 08:06:26;;;;;;;;;16.00;14.80;;;;;24.52;71.46;98699.16;5085956;28;8854;-77
2022/08/21 08:08:54;;;;;;;;;17.00;17.00;;;;;24.22;71.42;98690.66;5039162;28;9556;-77
2022/08/21 08:11:23;;;;;;;;;67.50;56.75;;;;;24.54;71.40;98684.84;5089475;28;8861;-76
2022/08/21 08:13:53;;;;;;;;;15.60;15.60;;;;;24.56;70.97;98689.13;5071625;28;8877;-77
2022/08/21 08:16:22;;;;;;;;;18.80;17.80;;;;;24.42;70.77;98692.72;5055718;28;8834;-77
2022/08/21 08:18:51;;;;;;;;;18.60;17.60;;;;;24.65;70.25;98693.81;5073197;28;8873;-79
2022/08/21 08:21:20;;;;;;;;;18.20;17.40;;;;;24.58;70.65;98700.53;5063552;28;8857;-78
2022/08/21 08:23:51;;;;;;;;;18.80;18.20;;;;;24.75;70.61;98695.81;5050736;28;8899;-78
2022/08/21 08:26:20;;;;;;;;;24.00;22.40;;;;;24.89;70.05;98691.13;5050899;28;8883;-77
2022/08/21 08:28:48;;;;;;;;;15.00;15.00;;;;;24.58;71.01;98697.88;5103308;28;8876;-78
2022/08/21 08:31:17;;;;;;;;;16.60;15.00;;;;;24.81;70.84;98690.84;5046229;28;8992;-78
2022/08/21 08:33:46;;;;;;;;;22.60;19.00;;;;;24.89;70.30;98682.28;5049274;28;8864;-79
2022/08/21 08:36:17;;;;;;;;;24.20;20.80;;;;;25.03;68.57;98686.63;5052932;28;9606;-77
2022/08/21 08:38:48;;;;;;;;;18.40;17.60;;;;;25.21;68.61;98687.06;5035939;28;9598;-78
2022/08/21 08:41:22;;;;;;;;;20.00;20.00;;;;;25.25;68.31;98686.75;5054795;28;8846;-79
2022/08/21 08:44:02;;;;;;;;;19.40;18.40;;;;;24.81;69.26;98682.00;5071414;28;9000;-79
2022/08/21 08:46:36;;;;;;;;;21.20;20.20;;;;;25.01;69.08;98680.53;5071545;28;8872;-77
2022/08/21 08:49:11;;;;;;;;;26.20;24.40;;;;;24.62;71.02;98685.16;5071673;28;9046;-79
2022/08/21 08:51:47;;;;;;;;;34.80;31.20;;;;;25.00;69.55;98681.50;5053012;28;8919;-77
2022/08/21 08:54:31;;;;;;;;;25.60;24.60;;;;;24.40;72.01;98683.16;5068824;28;9019;-77
2022/08/21 08:57:02;;;;;;;;;23.20;23.20;;;;;24.69;71.07;98683.78;5068967;28;10058;-78
2022/08/21 08:59:39;;;;;;;;;24.20;23.00;;;;;24.22;72.83;98683.50;5077726;28;8864;-77
2022/08/21 09:02:13;;;;;;;;;23.60;22.60;;;;;24.78;71.00;98676.91;5088706;28;8982;-78
2022/08/21 09:04:43;;;;;;;;;27.20;24.80;;;;;24.81;69.49;98674.00;5089677;28;8889;-79
2022/08/21 09:07:21;;;;;;;;;25.80;25.00;;;;;24.92;69.10;98675.91;5072315;28;8843;-80
2022/08/21 09:10:02;;;;;;;;;25.20;23.80;;;;;24.94;69.58;98671.31;5089708;28;8876;-79
2022/08/21 09:12:46;;;;;;;;;23.20;22.80;;;;;25.50;67.76;98668.91;5089208;28;8851;-77
2022/08/21 09:15:24;;;;;;;;;21.60;20.60;;;;;25.99;66.28;98665.13;5071425;28;8972;-79
2022/08/21 09:18:07;;;;;;;;;26.40;26.00;;;;;25.87;65.16;98666.88;5071604;28;8859;-77
2022/08/21 09:20:41;;;;;;;;;73.75;65.75;;;;;26.04;65.33;98662.94;5088802;28;8852;-77
2022/08/21 09:23:27;;;;;;;;;23.60;22.20;;;;;26.68;63.98;98657.94;5090129;28;9807;-79
2022/08/21 09:26:03;;;;;;;;;64.75;50.50;;;;;27.00;62.64;98660.66;5037626;28;8943;-77
2022/08/21 09:28:34;;;;;;;;;58.25;47.00;;;;;27.31;61.96;98660.78;5090510;28;8891;-78
2022/08/21 09:31:07;;;;;;;;;35.00;32.00;;;;;27.65;60.91;98663.28;5072128;28;8967;-80
2022/08/21 09:33:36;;;;;;;;;25.00;23.80;;;;;27.87;59.91;98663.13;5090557;28;8872;-78
2022/08/21 09:36:05;;;;;;;;;28.20;27.20;;;;;28.04;59.02;98655.50;5090303;28;8871;-81
2022/08/21 09:38:37;;;;;;;;;26.60;23.20;;;;;28.22;58.10;98648.50;5089927;28;8855;-78
2022/08/21 09:41:08;;;;;;;;;27.40;25.00;;;;;28.41;57.51;98642.38;5088685;28;9605;-79
2022/08/21 09:43:39;;;;;;;;;23.20;21.60;;;;;28.57;57.20;98644.56;5089777;28;8854;-79
2022/08/21 09:46:11;;;;;;;;;23.60;23.60;;;;;28.71;56.75;98644.16;5089719;28;8932;-77
2022/08/21 09:48:43;;;;;;;;;25.20;23.20;;;;;28.84;56.46;98643.06;5089949;28;8855;-78
2022/08/21 09:51:15;;;;;;;;;31.80;30.40;;;;;29.03;55.91;98634.19;5088421;28;9005;-78
2022/08/21 09:53:47;;;;;;;;;31.00;26.80;;;;;29.07;54.96;98639.09;5087475;28;8856;-80
2022/08/21 09:59:26;;;;;;;;;34.75;32.25;;;;;29.11;54.59;98637.88;4951798;28;8892;-80
2022/08/21 10:01:55;;;;;;;;;27.20;26.60;;;;;29.02;56.03;98633.34;4968279;28;8864;-78
2022/08/21 10:04:28;;;;;;;;;26.40;24.20;;;;;28.97;56.47;98636.44;4967906;28;8877;-78
2022/08/21 10:07:07;;;;;;;;;21.00;21.00;;;;;28.97;56.11;98633.75;4951955;28;8902;-78
2022/08/21 10:09:36;;;;;;;;;21.20;18.80;;;;;28.68;56.81;98641.78;4967538;28;9755;-76
2022/08/21 10:12:16;;;;;;;;;23.40;22.20;;;;;28.82;56.43;98637.00;4966927;28;8902;-79
2022/08/21 10:14:55;;;;;;;;;27.40;26.80;;;;;28.74;56.58;98641.22;4967574;28;9010;-80
2022/08/21 10:17:33;;;;;;;;;23.00;21.40;;;;;28.61;57.18;98640.63;4967601;28;8890;-78
2022/08/21 10:20:08;;;;;;;;;24.00;24.00;;;;;28.58;57.04;98638.22;4968179;28;8918;-80
2022/08/21 10:22:47;;;;;;;;;22.40;20.40;;;;;28.57;57.11;98637.38;4922594;28;9141;-78
2022/08/21 10:25:20;;;;;;;;;21.20;18.80;;;;;28.63;57.28;98638.66;4951916;28;8974;-79
2022/08/21 10:27:59;;;;;;;;;20.80;20.80;;;;;28.46;56.51;98647.34;4954781;28;8896;-78
2022/08/21 10:30:39;;;;;;;;;20.20;19.20;;;;;28.32;57.10;98654.78;4960554;28;8866;-79
2022/08/21 10:33:27;;;;;;;;;21.20;20.20;;;;;27.28;60.14;98650.31;4999467;28;8955;-77
2022/08/21 10:36:06;;;;;;;;;25.00;22.60;;;;;26.87;61.95;98660.81;5039027;28;8900;-79
2022/08/21 10:39:08;;;;;;;;;18.80;18.40;;;;;27.29;60.51;98652.03;5067355;28;8857;-79
2022/08/21 10:42:15;;;;;;;;;8.20;7.40;;;;;25.44;68.37;98648.00;5067521;28;9331;-78
2022/08/21 10:44:55;;;;;;;;;5.20;4.20;;;;;24.33;71.24;98667.63;5065646;28;8956;-75
2022/08/21 10:47:34;;;;;;;;;4.80;4.80;;;;;23.55;76.32;98679.22;5087566;28;8970;-75
2022/08/21 10:50:11;;;;;;;;;4.80;4.00;;;;;23.61;77.36;98674.41;5086723;28;8990;-76
2022/08/21 10:53:02;;;;;;;;;4.00;4.00;;;;;22.87;79.26;98674.84;5066663;28;8923;-76
2022/08/21 10:55:34;;;;;;;;;2.60;2.60;;;;;22.38;82.75;98683.28;5068010;28;8846;-80
2022/08/21 10:58:08;;;;;;;;;5.20;3.80;;;;;21.68;88.75;98697.28;5066513;28;8866;-76
2022/08/21 11:00:44;;;;;;;;;5.00;3.00;;;;;21.28;91.90;98694.25;5086873;28;8866;-82
2022/08/21 11:03:18;;;;;;;;;5.00;4.60;;;;;21.52;90.83;98678.75;5070240;28;8860;-79
2022/08/21 11:05:51;;;;;;;;;6.40;5.80;;;;;21.52;90.28;98683.19;5065019;28;8957;-76
2022/08/21 11:08:24;;;;;;;;;5.00;4.40;;;;;21.42;90.72;98688.16;5047932;28;8946;-80
2022/08/21 11:11:03;;;;;;;;;8.80;7.40;;;;;21.73;89.71;98681.06;5048081;28;8965;-82
2022/08/21 11:13:41;;;;;;;;;6.60;6.40;;;;;21.57;90.36;98681.13;5031292;28;8988;-79
2022/08/21 11:16:17;;;;;;;;;5.20;5.20;;;;;21.54;90.57;98676.00;5064707;28;8838;-81
2022/08/21 11:18:51;;;;;;;;;10.00;9.00;;;;;21.65;90.09;98688.63;5061764;28;8884;-77
2022/08/21 11:21:30;;;;;;;;;14.00;11.60;;;;;21.69;89.41;98684.84;5051529;28;8852;-80
2022/08/21 11:24:04;;;;;;;;;8.20;8.20;;;;;21.70;89.85;98679.44;5024678;28;8951;-77
2022/08/21 11:26:40;;;;;;;;;9.20;9.20;;;;;21.70;89.51;98681.22;5008444;28;8872;-78
2022/08/21 11:29:16;;;;;;;;;10.20;9.80;;;;;21.79;89.41;98678.03;5008645;28;8872;-78
2022/08/21 11:32:01;;;;;;;;;11.80;11.00;;;;;21.60;90.68;98676.47;5013170;28;8862;-78
2022/08/21 11:34:48;;;;;;;;;15.40;14.40;;;;;21.76;89.13;98683.53;5005220;28;8862;-80
2022/08/21 11:37:28;;;;;;;;;14.20;12.00;;;;;21.82;89.26;98677.00;5019798;28;8845;-77
2022/08/21 11:40:05;;;;;;;;;15.00;15.00;;;;;21.78;89.22;98682.50;5082246;28;8972;-79
2022/08/21 11:42:45;;;;;;;;;12.80;12.80;;;;;21.80;89.04;98677.94;5018923;28;8834;-78
2022/08/21 11:45:22;;;;;;;;;14.80;14.80;;;;;21.67;89.49;98669.00;5051985;28;8877;-78
2022/08/21 11:48:06;;;;;;;;;17.60;15.80;;;;;22.00;88.19;98668.78;4993420;28;8869;-79
2022/08/21 11:50:39;;;;;;;;;17.40;16.80;;;;;21.90;88.04;98672.91;5049464;28;8854;-78
2022/08/21 11:53:13;;;;;;;;;26.60;25.80;;;;;22.13;87.83;98674.16;5032385;28;9789;-79